Current | Forecast
Updated: 8:00 AM +10 on December 14, 2017
Observed at Yuzhno-Sakhalinsk, Russia
Temperature 25°F
Windchill 17°F
Humidity 86%
Dew Point 21°F
Wind North at 7 mph
Pressure 30.06 in (Steady)
Conditions Scattered Clouds
Visibility 6.2 miles
UV 0 out of 16
Clouds Scattered Clouds (SCT) : 4000 ft
Yesterday's Maximum 32°F
Yesterday's Minimum 28°F approx.
Yesterday's Heating Degree Days 35 approx.
Sunrise8:08 AM +10
Sunset4:45 PM +10
Moon Rise3:40 AM +10
Moon Set2:47 PM +10
Moon PhaseMoon Phase
Waning Crescent
Raw METARMETAR UHSS 132200Z 36003MPS 9999 SCT040CB M04/M06 Q1018 R01/420550 NOSIG RMK QFE762/1017


Monday
. High: 51° F.
Tuesday
. High: 50° F.
Wednesday
. High: 51° F.
Thursday
. High: 51° F.
Friday
. High: 48° F.
Saturday
. High: 53° F.
Sunday
. High: 46° F.
Monday
. High: 50° F.

Units: English | Metric

Find the Weather for any City, State or Zipcode, or Country:

U.S. State List | Severe Weather | Tropical Storms | Ski Conditions
United States | Canada | Central America | South America | Asia | Europe | Australia | Africa | Islands

Weather Underground

© Copyright 2017
The Weather Company, LLC